sensor_id;sensor_type;location;lat;lon;timestamp;P1;durP1;ratioP1;P2;durP2;ratioP2
2940;SDS011;1480;51.456;6.670;2023-07-13T00:00:13;2.97;;;1.33;;
2940;SDS011;1480;51.456;6.670;2023-07-13T00:02:42;4.30;;;1.00;;
2940;SDS011;1480;51.456;6.670;2023-07-13T00:05:09;1.87;;;0.90;;
2940;SDS011;1480;51.456;6.670;2023-07-13T00:07:36;2.17;;;0.93;;
2940;SDS011;1480;51.456;6.670;2023-07-13T00:10:03;2.40;;;0.90;;
2940;SDS011;1480;51.456;6.670;2023-07-13T00:12:32;4.93;;;1.00;;
2940;SDS011;1480;51.456;6.670;2023-07-13T00:15:01;2.33;;;0.87;;
2940;SDS011;1480;51.456;6.670;2023-07-13T00:17:29;2.43;;;0.90;;
2940;SDS011;1480;51.456;6.670;2023-07-13T00:19:57;3.23;;;1.00;;
2940;SDS011;1480;51.456;6.670;2023-07-13T00:22:24;1.50;;;0.80;;
2940;SDS011;1480;51.456;6.670;2023-07-13T00:24:51;2.90;;;1.37;;
2940;SDS011;1480;51.456;6.670;2023-07-13T00:27:18;1.40;;;0.80;;
2940;SDS011;1480;51.456;6.670;2023-07-13T00:29:45;5.80;;;1.20;;
2940;SDS011;1480;51.456;6.670;2023-07-13T00:32:12;2.40;;;1.00;;
2940;SDS011;1480;51.456;6.670;2023-07-13T00:34:39;1.30;;;0.83;;
2940;SDS011;1480;51.456;6.670;2023-07-13T00:37:08;1.43;;;0.77;;
2940;SDS011;1480;51.456;6.670;2023-07-13T00:39:34;1.90;;;1.00;;
2940;SDS011;1480;51.456;6.670;2023-07-13T00:42:02;1.80;;;0.90;;
2940;SDS011;1480;51.456;6.670;2023-07-13T00:44:29;5.53;;;1.30;;
2940;SDS011;1480;51.456;6.670;2023-07-13T00:46:56;1.67;;;0.87;;
2940;SDS011;1480;51.456;6.670;2023-07-13T00:49:24;4.77;;;1.27;;
2940;SDS011;1480;51.456;6.670;2023-07-13T00:51:53;3.00;;;1.43;;
2940;SDS011;1480;51.456;6.670;2023-07-13T00:54:23;3.03;;;1.00;;
2940;SDS011;1480;51.456;6.670;2023-07-13T00:56:52;1.30;;;0.70;;
2940;SDS011;1480;51.456;6.670;2023-07-13T00:59:20;3.63;;;1.10;;
2940;SDS011;1480;51.456;6.670;2023-07-13T01:01:48;3.70;;;1.07;;
2940;SDS011;1480;51.456;6.670;2023-07-13T01:04:15;2.60;;;1.20;;
2940;SDS011;1480;51.456;6.670;2023-07-13T01:06:42;2.67;;;1.20;;
2940;SDS011;1480;51.456;6.670;2023-07-13T01:09:09;1.97;;;1.00;;
2940;SDS011;1480;51.456;6.670;2023-07-13T01:11:39;1.60;;;1.00;;
2940;SDS011;1480;51.456;6.670;2023-07-13T01:14:06;1.80;;;1.00;;
2940;SDS011;1480;51.456;6.670;2023-07-13T01:16:34;2.17;;;0.97;;
2940;SDS011;1480;51.456;6.670;2023-07-13T01:19:07;1.77;;;1.00;;
2940;SDS011;1480;51.456;6.670;2023-07-13T01:21:40;3.50;;;1.27;;
2940;SDS011;1480;51.456;6.670;2023-07-13T01:24:08;1.67;;;0.90;;
2940;SDS011;1480;51.456;6.670;2023-07-13T01:26:35;2.57;;;1.10;;
2940;SDS011;1480;51.456;6.670;2023-07-13T01:29:01;1.60;;;0.90;;
2940;SDS011;1480;51.456;6.670;2023-07-13T01:31:28;3.00;;;1.17;;
2940;SDS011;1480;51.456;6.670;2023-07-13T01:33:57;3.73;;;0.90;;
2940;SDS011;1480;51.456;6.670;2023-07-13T01:36:23;1.57;;;0.90;;
2940;SDS011;1480;51.456;6.670;2023-07-13T01:38:52;3.97;;;1.30;;
2940;SDS011;1480;51.456;6.670;2023-07-13T01:41:18;6.87;;;1.40;;
2940;SDS011;1480;51.456;6.670;2023-07-13T01:43:45;4.10;;;1.37;;
2940;SDS011;1480;51.456;6.670;2023-07-13T01:46:12;1.93;;;1.00;;
2940;SDS011;1480;51.456;6.670;2023-07-13T01:48:39;1.80;;;1.07;;
2940;SDS011;1480;51.456;6.670;2023-07-13T01:51:05;4.73;;;1.57;;
2940;SDS011;1480;51.456;6.670;2023-07-13T01:53:32;1.80;;;0.90;;
2940;SDS011;1480;51.456;6.670;2023-07-13T01:56:02;4.53;;;1.30;;
2940;SDS011;1480;51.456;6.670;2023-07-13T01:58:28;1.87;;;1.00;;
2940;SDS011;1480;51.456;6.670;2023-07-13T02:00:55;5.00;;;1.10;;
2940;SDS011;1480;51.456;6.670;2023-07-13T02:03:22;1.80;;;1.00;;
2940;SDS011;1480;51.456;6.670;2023-07-13T02:05:49;3.77;;;0.90;;
2940;SDS011;1480;51.456;6.670;2023-07-13T02:08:15;2.80;;;0.97;;
2940;SDS011;1480;51.456;6.670;2023-07-13T02:10:42;3.73;;;1.50;;
2940;SDS011;1480;51.456;6.670;2023-07-13T02:13:10;3.53;;;1.00;;
2940;SDS011;1480;51.456;6.670;2023-07-13T02:15:38;3.43;;;1.33;;
2940;SDS011;1480;51.456;6.670;2023-07-13T02:18:05;3.10;;;1.20;;
2940;SDS011;1480;51.456;6.670;2023-07-13T02:20:32;4.70;;;1.00;;
2940;SDS011;1480;51.456;6.670;2023-07-13T02:22:58;5.53;;;1.23;;
2940;SDS011;1480;51.456;6.670;2023-07-13T02:25:25;1.40;;;0.90;;
2940;SDS011;1480;51.456;6.670;2023-07-13T02:27:52;2.07;;;1.00;;
2940;SDS011;1480;51.456;6.670;2023-07-13T02:30:20;1.60;;;1.00;;
2940;SDS011;1480;51.456;6.670;2023-07-13T02:32:53;2.80;;;0.90;;
2940;SDS011;1480;51.456;6.670;2023-07-13T02:35:19;1.90;;;1.00;;
2940;SDS011;1480;51.456;6.670;2023-07-13T02:37:46;4.80;;;1.10;;
2940;SDS011;1480;51.456;6.670;2023-07-13T02:40:13;4.17;;;1.60;;
2940;SDS011;1480;51.456;6.670;2023-07-13T02:42:39;1.40;;;0.80;;
2940;SDS011;1480;51.456;6.670;2023-07-13T02:45:07;8.97;;;1.03;;
2940;SDS011;1480;51.456;6.670;2023-07-13T02:47:36;2.97;;;1.00;;
2940;SDS011;1480;51.456;6.670;2023-07-13T02:50:03;2.13;;;1.10;;
2940;SDS011;1480;51.456;6.670;2023-07-13T02:52:30;2.47;;;0.90;;
2940;SDS011;1480;51.456;6.670;2023-07-13T02:54:57;4.13;;;1.00;;
2940;SDS011;1480;51.456;6.670;2023-07-13T02:57:24;1.90;;;1.00;;
2940;SDS011;1480;51.456;6.670;2023-07-13T02:59:50;2.60;;;1.10;;
2940;SDS011;1480;51.456;6.670;2023-07-13T03:02:18;4.47;;;1.20;;
2940;SDS011;1480;51.456;6.670;2023-07-13T03:04:46;2.30;;;1.17;;
2940;SDS011;1480;51.456;6.670;2023-07-13T03:07:13;2.30;;;1.20;;
2940;SDS011;1480;51.456;6.670;2023-07-13T03:09:41;3.83;;;1.10;;
2940;SDS011;1480;51.456;6.670;2023-07-13T03:12:09;1.67;;;0.90;;
2940;SDS011;1480;51.456;6.670;2023-07-13T03:14:35;2.80;;;1.23;;
2940;SDS011;1480;51.456;6.670;2023-07-13T03:17:05;1.93;;;1.13;;
2940;SDS011;1480;51.456;6.670;2023-07-13T03:19:34;3.67;;;1.30;;
2940;SDS011;1480;51.456;6.670;2023-07-13T03:22:04;2.00;;;1.00;;
2940;SDS011;1480;51.456;6.670;2023-07-13T03:24:32;1.53;;;1.07;;
2940;SDS011;1480;51.456;6.670;2023-07-13T03:27:00;3.60;;;1.37;;
2940;SDS011;1480;51.456;6.670;2023-07-13T03:29:27;6.80;;;1.53;;
2940;SDS011;1480;51.456;6.670;2023-07-13T03:31:54;2.13;;;1.00;;
2940;SDS011;1480;51.456;6.670;2023-07-13T03:34:22;2.13;;;1.37;;
2940;SDS011;1480;51.456;6.670;2023-07-13T03:36:49;2.90;;;1.17;;
2940;SDS011;1480;51.456;6.670;2023-07-13T03:39:17;2.70;;;1.10;;
2940;SDS011;1480;51.456;6.670;2023-07-13T03:41:50;2.20;;;1.03;;
2940;SDS011;1480;51.456;6.670;2023-07-13T03:44:17;3.87;;;1.20;;
2940;SDS011;1480;51.456;6.670;2023-07-13T03:46:47;4.10;;;1.33;;
2940;SDS011;1480;51.456;6.670;2023-07-13T03:49:14;1.70;;;1.00;;
2940;SDS011;1480;51.456;6.670;2023-07-13T03:51:41;2.23;;;1.43;;
2940;SDS011;1480;51.456;6.670;2023-07-13T03:54:07;10.00;;;1.30;;
2940;SDS011;1480;51.456;6.670;2023-07-13T03:56:35;5.00;;;1.40;;
2940;SDS011;1480;51.456;6.670;2023-07-13T03:59:03;2.37;;;1.00;;
2940;SDS011;1480;51.456;6.670;2023-07-13T04:01:30;4.83;;;1.50;;
2940;SDS011;1480;51.456;6.670;2023-07-13T04:03:57;4.00;;;1.13;;
2940;SDS011;1480;51.456;6.670;2023-07-13T04:06:25;3.10;;;1.23;;
2940;SDS011;1480;51.456;6.670;2023-07-13T04:08:55;1.30;;;0.90;;
2940;SDS011;1480;51.456;6.670;2023-07-13T04:11:24;8.00;;;1.10;;
2940;SDS011;1480;51.456;6.670;2023-07-13T04:13:53;2.50;;;0.90;;
2940;SDS011;1480;51.456;6.670;2023-07-13T04:16:20;2.03;;;0.90;;
2940;SDS011;1480;51.456;6.670;2023-07-13T04:18:47;5.83;;;1.53;;
2940;SDS011;1480;51.456;6.670;2023-07-13T04:21:14;3.13;;;1.30;;
2940;SDS011;1480;51.456;6.670;2023-07-13T04:23:41;2.47;;;1.13;;
2940;SDS011;1480;51.456;6.670;2023-07-13T04:26:08;1.80;;;0.90;;
2940;SDS011;1480;51.456;6.670;2023-07-13T04:28:35;2.17;;;1.17;;
2940;SDS011;1480;51.456;6.670;2023-07-13T04:31:03;3.37;;;1.37;;
2940;SDS011;1480;51.456;6.670;2023-07-13T04:33:30;2.20;;;1.27;;
2940;SDS011;1480;51.456;6.670;2023-07-13T04:35:56;5.60;;;1.30;;
2940;SDS011;1480;51.456;6.670;2023-07-13T04:38:24;3.03;;;1.30;;
2940;SDS011;1480;51.456;6.670;2023-07-13T04:40:54;5.57;;;1.10;;
2940;SDS011;1480;51.456;6.670;2023-07-13T04:43:21;2.03;;;1.20;;
2940;SDS011;1480;51.456;6.670;2023-07-13T04:45:48;2.30;;;1.10;;
2940;SDS011;1480;51.456;6.670;2023-07-13T04:48:17;4.47;;;1.47;;
2940;SDS011;1480;51.456;6.670;2023-07-13T04:50:43;2.00;;;1.20;;
2940;SDS011;1480;51.456;6.670;2023-07-13T04:53:10;2.07;;;1.03;;
2940;SDS011;1480;51.456;6.670;2023-07-13T04:55:37;3.07;;;1.07;;
2940;SDS011;1480;51.456;6.670;2023-07-13T04:58:04;3.57;;;1.80;;
2940;SDS011;1480;51.456;6.670;2023-07-13T05:00:31;5.80;;;1.30;;
2940;SDS011;1480;51.456;6.670;2023-07-13T05:02:58;3.50;;;1.10;;
2940;SDS011;1480;51.456;6.670;2023-07-13T05:05:26;4.00;;;1.57;;
2940;SDS011;1480;51.456;6.670;2023-07-13T05:07:53;3.93;;;0.97;;
2940;SDS011;1480;51.456;6.670;2023-07-13T05:10:20;2.23;;;1.30;;
2940;SDS011;1480;51.456;6.670;2023-07-13T05:12:47;5.33;;;1.30;;
2940;SDS011;1480;51.456;6.670;2023-07-13T05:15:14;4.93;;;1.53;;
2940;SDS011;1480;51.456;6.670;2023-07-13T05:17:40;5.33;;;1.20;;
2940;SDS011;1480;51.456;6.670;2023-07-13T05:20:08;1.90;;;0.90;;
2940;SDS011;1480;51.456;6.670;2023-07-13T05:22:36;2.07;;;1.10;;
2940;SDS011;1480;51.456;6.670;2023-07-13T05:25:04;5.17;;;1.30;;
2940;SDS011;1480;51.456;6.670;2023-07-13T05:27:31;2.67;;;1.40;;
2940;SDS011;1480;51.456;6.670;2023-07-13T05:29:58;4.50;;;1.40;;
2940;SDS011;1480;51.456;6.670;2023-07-13T05:32:24;3.00;;;1.47;;
2940;SDS011;1480;51.456;6.670;2023-07-13T05:34:51;1.97;;;1.07;;
2940;SDS011;1480;51.456;6.670;2023-07-13T05:37:18;2.80;;;1.40;;
2940;SDS011;1480;51.456;6.670;2023-07-13T05:39:46;5.07;;;1.60;;
2940;SDS011;1480;51.456;6.670;2023-07-13T05:42:13;4.90;;;1.57;;
2940;SDS011;1480;51.456;6.670;2023-07-13T05:44:39;3.53;;;1.33;;
2940;SDS011;1480;51.456;6.670;2023-07-13T05:47:06;4.80;;;1.43;;
2940;SDS011;1480;51.456;6.670;2023-07-13T05:49:33;5.90;;;1.20;;
2940;SDS011;1480;51.456;6.670;2023-07-13T05:51:59;5.57;;;1.50;;
2940;SDS011;1480;51.456;6.670;2023-07-13T05:54:26;5.17;;;1.37;;
2940;SDS011;1480;51.456;6.670;2023-07-13T05:56:54;6.67;;;1.90;;
2940;SDS011;1480;51.456;6.670;2023-07-13T05:59:21;5.63;;;1.70;;
2940;SDS011;1480;51.456;6.670;2023-07-13T06:01:48;7.10;;;2.53;;
2940;SDS011;1480;51.456;6.670;2023-07-13T06:04:17;3.03;;;1.43;;
2940;SDS011;1480;51.456;6.670;2023-07-13T06:06:44;3.10;;;1.50;;
2940;SDS011;1480;51.456;6.670;2023-07-13T06:09:10;5.83;;;1.50;;
2940;SDS011;1480;51.456;6.670;2023-07-13T06:11:37;4.13;;;1.27;;
2940;SDS011;1480;51.456;6.670;2023-07-13T06:14:05;7.17;;;1.70;;
2940;SDS011;1480;51.456;6.670;2023-07-13T06:16:31;6.17;;;1.43;;
2940;SDS011;1480;51.456;6.670;2023-07-13T06:18:58;6.83;;;2.47;;
2940;SDS011;1480;51.456;6.670;2023-07-13T06:21:25;2.40;;;1.77;;
2940;SDS011;1480;51.456;6.670;2023-07-13T06:23:52;8.23;;;1.80;;
2940;SDS011;1480;51.456;6.670;2023-07-13T06:26:19;3.77;;;1.63;;
2940;SDS011;1480;51.456;6.670;2023-07-13T06:28:46;7.53;;;1.80;;
2940;SDS011;1480;51.456;6.670;2023-07-13T06:31:14;4.67;;;1.63;;
2940;SDS011;1480;51.456;6.670;2023-07-13T06:33:41;7.33;;;2.30;;
2940;SDS011;1480;51.456;6.670;2023-07-13T06:36:09;6.43;;;1.87;;
2940;SDS011;1480;51.456;6.670;2023-07-13T06:38:35;4.97;;;1.50;;
2940;SDS011;1480;51.456;6.670;2023-07-13T06:41:02;4.23;;;2.07;;
2940;SDS011;1480;51.456;6.670;2023-07-13T06:43:29;5.43;;;2.10;;
2940;SDS011;1480;51.456;6.670;2023-07-13T06:45:57;3.70;;;1.53;;
2940;SDS011;1480;51.456;6.670;2023-07-13T06:48:25;6.33;;;2.37;;
2940;SDS011;1480;51.456;6.670;2023-07-13T06:50:52;2.70;;;1.60;;
2940;SDS011;1480;51.456;6.670;2023-07-13T06:53:19;7.87;;;1.83;;
2940;SDS011;1480;51.456;6.670;2023-07-13T06:55:46;6.63;;;1.83;;
2940;SDS011;1480;51.456;6.670;2023-07-13T06:58:14;6.60;;;1.97;;
2940;SDS011;1480;51.456;6.670;2023-07-13T07:00:41;5.20;;;2.00;;
2940;SDS011;1480;51.456;6.670;2023-07-13T07:03:08;4.73;;;1.70;;
2940;SDS011;1480;51.456;6.670;2023-07-13T07:05:36;4.30;;;1.90;;
2940;SDS011;1480;51.456;6.670;2023-07-13T07:08:03;5.97;;;2.63;;
2940;SDS011;1480;51.456;6.670;2023-07-13T07:10:30;6.70;;;1.83;;
2940;SDS011;1480;51.456;6.670;2023-07-13T07:12:57;3.73;;;1.97;;
2940;SDS011;1480;51.456;6.670;2023-07-13T07:15:24;6.30;;;2.67;;
2940;SDS011;1480;51.456;6.670;2023-07-13T07:17:51;8.70;;;2.63;;
2940;SDS011;1480;51.456;6.670;2023-07-13T07:20:18;10.53;;;2.70;;
2940;SDS011;1480;51.456;6.670;2023-07-13T07:22:46;5.10;;;2.30;;
2940;SDS011;1480;51.456;6.670;2023-07-13T07:25:13;5.20;;;1.90;;
2940;SDS011;1480;51.456;6.670;2023-07-13T07:27:40;6.90;;;2.47;;
2940;SDS011;1480;51.456;6.670;2023-07-13T07:30:07;7.90;;;2.30;;
2940;SDS011;1480;51.456;6.670;2023-07-13T07:32:34;5.20;;;2.53;;
2940;SDS011;1480;51.456;6.670;2023-07-13T07:35:01;5.37;;;2.30;;
2940;SDS011;1480;51.456;6.670;2023-07-13T07:37:27;4.10;;;2.37;;
2940;SDS011;1480;51.456;6.670;2023-07-13T07:39:55;11.20;;;2.27;;
2940;SDS011;1480;51.456;6.670;2023-07-13T07:42:22;5.50;;;2.50;;
2940;SDS011;1480;51.456;6.670;2023-07-13T07:44:48;4.37;;;2.37;;
2940;SDS011;1480;51.456;6.670;2023-07-13T07:47:15;6.23;;;1.90;;
2940;SDS011;1480;51.456;6.670;2023-07-13T07:49:41;4.63;;;2.10;;
2940;SDS011;1480;51.456;6.670;2023-07-13T07:52:08;5.17;;;3.00;;
2940;SDS011;1480;51.456;6.670;2023-07-13T07:54:35;4.63;;;2.73;;
2940;SDS011;1480;51.456;6.670;2023-07-13T07:57:03;6.27;;;2.40;;
2940;SDS011;1480;51.456;6.670;2023-07-13T07:59:30;5.20;;;2.13;;
2940;SDS011;1480;51.456;6.670;2023-07-13T08:01:57;5.90;;;2.30;;
2940;SDS011;1480;51.456;6.670;2023-07-13T08:04:24;4.47;;;2.20;;
2940;SDS011;1480;51.456;6.670;2023-07-13T08:06:50;4.53;;;2.57;;
2940;SDS011;1480;51.456;6.670;2023-07-13T08:09:17;3.40;;;2.67;;
2940;SDS011;1480;51.456;6.670;2023-07-13T08:11:43;3.97;;;2.27;;
2940;SDS011;1480;51.456;6.670;2023-07-13T08:14:11;8.57;;;2.13;;
2940;SDS011;1480;51.456;6.670;2023-07-13T08:16:38;5.37;;;2.10;;
2940;SDS011;1480;51.456;6.670;2023-07-13T08:19:05;5.50;;;2.60;;
2940;SDS011;1480;51.456;6.670;2023-07-13T08:21:32;5.10;;;2.80;;
2940;SDS011;1480;51.456;6.670;2023-07-13T08:23:58;6.57;;;2.60;;
2940;SDS011;1480;51.456;6.670;2023-07-13T08:26:25;7.20;;;3.10;;
2940;SDS011;1480;51.456;6.670;2023-07-13T08:28:52;5.90;;;2.43;;
2940;SDS011;1480;51.456;6.670;2023-07-13T08:31:20;8.03;;;2.53;;
2940;SDS011;1480;51.456;6.670;2023-07-13T08:33:46;6.63;;;2.63;;
2940;SDS011;1480;51.456;6.670;2023-07-13T08:36:13;5.37;;;2.97;;
2940;SDS011;1480;51.456;6.670;2023-07-13T08:38:39;5.00;;;2.47;;
2940;SDS011;1480;51.456;6.670;2023-07-13T08:41:10;5.03;;;2.57;;
2940;SDS011;1480;51.456;6.670;2023-07-13T08:43:38;5.60;;;2.63;;
2940;SDS011;1480;51.456;6.670;2023-07-13T08:46:07;4.53;;;2.27;;
2940;SDS011;1480;51.456;6.670;2023-07-13T08:48:38;9.40;;;2.60;;
2940;SDS011;1480;51.456;6.670;2023-07-13T08:51:10;4.17;;;2.67;;
2940;SDS011;1480;51.456;6.670;2023-07-13T08:53:43;5.00;;;2.20;;
2940;SDS011;1480;51.456;6.670;2023-07-13T08:56:16;3.50;;;1.93;;
2940;SDS011;1480;51.456;6.670;2023-07-13T08:58:44;5.17;;;2.17;;
2940;SDS011;1480;51.456;6.670;2023-07-13T09:01:15;4.00;;;1.50;;
2940;SDS011;1480;51.456;6.670;2023-07-13T09:06:34;3.20;;;2.30;;
2940;SDS011;1480;51.456;6.670;2023-07-13T09:09:10;4.37;;;1.43;;
2940;SDS011;1480;51.456;6.670;2023-07-13T09:11:47;3.93;;;1.97;;
2940;SDS011;1480;51.456;6.670;2023-07-13T09:14:25;4.80;;;1.83;;
2940;SDS011;1480;51.456;6.670;2023-07-13T09:16:58;4.60;;;1.93;;
2940;SDS011;1480;51.456;6.670;2023-07-13T09:19:27;5.90;;;2.03;;
2940;SDS011;1480;51.456;6.670;2023-07-13T09:21:55;4.40;;;2.07;;
2940;SDS011;1480;51.456;6.670;2023-07-13T09:24:28;4.40;;;2.13;;
2940;SDS011;1480;51.456;6.670;2023-07-13T09:26:57;7.57;;;2.77;;
2940;SDS011;1480;51.456;6.670;2023-07-13T09:29:27;5.53;;;1.83;;
2940;SDS011;1480;51.456;6.670;2023-07-13T09:31:59;5.00;;;1.90;;
2940;SDS011;1480;51.456;6.670;2023-07-13T09:34:29;5.77;;;1.97;;
2940;SDS011;1480;51.456;6.670;2023-07-13T09:36:56;12.90;;;1.83;;
2940;SDS011;1480;51.456;6.670;2023-07-13T09:39:24;3.07;;;1.80;;
2940;SDS011;1480;51.456;6.670;2023-07-13T09:41:53;3.00;;;1.40;;
2940;SDS011;1480;51.456;6.670;2023-07-13T09:44:27;4.70;;;1.80;;
2940;SDS011;1480;51.456;6.670;2023-07-13T09:46:56;5.13;;;2.40;;
2940;SDS011;1480;51.456;6.670;2023-07-13T09:49:23;5.80;;;2.40;;
2940;SDS011;1480;51.456;6.670;2023-07-13T09:51:57;10.03;;;2.30;;
2940;SDS011;1480;51.456;6.670;2023-07-13T09:54:24;1.90;;;1.47;;
2940;SDS011;1480;51.456;6.670;2023-07-13T09:56:53;14.47;;;3.80;;
2940;SDS011;1480;51.456;6.670;2023-07-13T09:59:22;3.90;;;2.10;;
2940;SDS011;1480;51.456;6.670;2023-07-13T10:01:50;5.43;;;2.07;;
2940;SDS011;1480;51.456;6.670;2023-07-13T10:04:18;2.90;;;1.83;;
2940;SDS011;1480;51.456;6.670;2023-07-13T10:06:45;5.40;;;1.90;;
2940;SDS011;1480;51.456;6.670;2023-07-13T10:09:16;3.90;;;1.80;;
2940;SDS011;1480;51.456;6.670;2023-07-13T10:11:44;4.37;;;2.10;;
2940;SDS011;1480;51.456;6.670;2023-07-13T10:14:11;4.40;;;1.57;;
2940;SDS011;1480;51.456;6.670;2023-07-13T10:16:39;3.47;;;1.47;;
2940;SDS011;1480;51.456;6.670;2023-07-13T10:19:10;5.07;;;1.60;;
2940;SDS011;1480;51.456;6.670;2023-07-13T10:21:43;2.70;;;1.20;;
2940;SDS011;1480;51.456;6.670;2023-07-13T10:24:15;3.17;;;2.30;;
2940;SDS011;1480;51.456;6.670;2023-07-13T10:26:46;4.03;;;1.50;;
2940;SDS011;1480;51.456;6.670;2023-07-13T10:29:15;3.37;;;1.53;;
2940;SDS011;1480;51.456;6.670;2023-07-13T10:31:44;3.03;;;1.43;;
2940;SDS011;1480;51.456;6.670;2023-07-13T10:34:11;6.37;;;2.20;;
2940;SDS011;1480;51.456;6.670;2023-07-13T10:36:40;8.73;;;1.80;;
2940;SDS011;1480;51.456;6.670;2023-07-13T10:39:10;2.80;;;1.50;;
2940;SDS011;1480;51.456;6.670;2023-07-13T10:41:43;4.13;;;1.33;;
2940;SDS011;1480;51.456;6.670;2023-07-13T10:44:15;4.50;;;1.60;;
2940;SDS011;1480;51.456;6.670;2023-07-13T10:46:45;4.83;;;1.60;;
2940;SDS011;1480;51.456;6.670;2023-07-13T10:49:12;4.50;;;1.30;;
2940;SDS011;1480;51.456;6.670;2023-07-13T10:51:39;4.80;;;1.53;;
2940;SDS011;1480;51.456;6.670;2023-07-13T10:54:17;4.27;;;1.50;;
2940;SDS011;1480;51.456;6.670;2023-07-13T10:56:48;2.40;;;1.13;;
2940;SDS011;1480;51.456;6.670;2023-07-13T10:59:17;2.20;;;1.00;;
2940;SDS011;1480;51.456;6.670;2023-07-13T11:01:53;4.43;;;1.63;;
2940;SDS011;1480;51.456;6.670;2023-07-13T11:04:21;3.73;;;1.30;;
2940;SDS011;1480;51.456;6.670;2023-07-13T11:06:49;3.87;;;1.30;;
2940;SDS011;1480;51.456;6.670;2023-07-13T11:09:30;2.60;;;1.37;;
2940;SDS011;1480;51.456;6.670;2023-07-13T11:12:01;2.03;;;1.17;;
2940;SDS011;1480;51.456;6.670;2023-07-13T11:14:30;2.57;;;1.67;;
2940;SDS011;1480;51.456;6.670;2023-07-13T11:16:57;5.27;;;1.90;;
2940;SDS011;1480;51.456;6.670;2023-07-13T11:22:13;1.93;;;1.10;;
2940;SDS011;1480;51.456;6.670;2023-07-13T11:24:49;2.43;;;1.10;;
2940;SDS011;1480;51.456;6.670;2023-07-13T11:27:26;3.27;;;1.40;;
2940;SDS011;1480;51.456;6.670;2023-07-13T11:30:13;3.17;;;1.47;;
2940;SDS011;1480;51.456;6.670;2023-07-13T11:32:49;2.53;;;1.47;;
2940;SDS011;1480;51.456;6.670;2023-07-13T11:35:17;1.70;;;1.00;;
2940;SDS011;1480;51.456;6.670;2023-07-13T11:37:48;2.83;;;1.37;;
2940;SDS011;1480;51.456;6.670;2023-07-13T11:40:14;3.33;;;1.47;;
2940;SDS011;1480;51.456;6.670;2023-07-13T11:42:43;2.50;;;1.10;;
2940;SDS011;1480;51.456;6.670;2023-07-13T11:45:18;3.57;;;1.20;;
2940;SDS011;1480;51.456;6.670;2023-07-13T11:47:48;3.77;;;1.80;;
2940;SDS011;1480;51.456;6.670;2023-07-13T11:50:18;4.03;;;1.00;;
2940;SDS011;1480;51.456;6.670;2023-07-13T11:52:46;2.20;;;0.97;;
2940;SDS011;1480;51.456;6.670;2023-07-13T11:55:14;2.23;;;1.23;;
2940;SDS011;1480;51.456;6.670;2023-07-13T11:57:44;2.83;;;1.20;;
2940;SDS011;1480;51.456;6.670;2023-07-13T12:00:14;4.23;;;1.33;;
2940;SDS011;1480;51.456;6.670;2023-07-13T12:02:43;5.07;;;1.60;;
2940;SDS011;1480;51.456;6.670;2023-07-13T12:05:11;4.00;;;1.20;;
2940;SDS011;1480;51.456;6.670;2023-07-13T12:07:39;1.90;;;1.10;;
2940;SDS011;1480;51.456;6.670;2023-07-13T12:10:13;3.63;;;1.20;;
2940;SDS011;1480;51.456;6.670;2023-07-13T12:12:51;2.00;;;1.10;;
2940;SDS011;1480;51.456;6.670;2023-07-13T12:15:20;2.80;;;1.43;;
2940;SDS011;1480;51.456;6.670;2023-07-13T12:17:48;2.17;;;1.60;;
2940;SDS011;1480;51.456;6.670;2023-07-13T12:20:17;2.13;;;1.00;;
2940;SDS011;1480;51.456;6.670;2023-07-13T12:22:46;1.90;;;1.20;;
2940;SDS011;1480;51.456;6.670;2023-07-13T12:25:13;4.03;;;1.07;;
2940;SDS011;1480;51.456;6.670;2023-07-13T12:27:42;4.07;;;1.67;;
2940;SDS011;1480;51.456;6.670;2023-07-13T12:30:27;2.50;;;1.37;;
2940;SDS011;1480;51.456;6.670;2023-07-13T12:32:56;2.87;;;1.20;;
2940;SDS011;1480;51.456;6.670;2023-07-13T12:35:25;3.17;;;1.17;;
2940;SDS011;1480;51.456;6.670;2023-07-13T12:37:52;2.90;;;1.30;;
2940;SDS011;1480;51.456;6.670;2023-07-13T12:40:20;6.60;;;1.33;;
2940;SDS011;1480;51.456;6.670;2023-07-13T12:42:48;1.93;;;1.17;;
2940;SDS011;1480;51.456;6.670;2023-07-13T12:45:18;5.70;;;1.50;;
2940;SDS011;1480;51.456;6.670;2023-07-13T12:47:50;4.40;;;1.40;;
2940;SDS011;1480;51.456;6.670;2023-07-13T12:50:19;5.30;;;1.10;;
2940;SDS011;1480;51.456;6.670;2023-07-13T12:52:50;2.33;;;1.10;;
2940;SDS011;1480;51.456;6.670;2023-07-13T12:55:18;5.60;;;2.43;;
2940;SDS011;1480;51.456;6.670;2023-07-13T12:57:47;9.00;;;1.40;;
2940;SDS011;1480;51.456;6.670;2023-07-13T13:00:20;2.30;;;1.20;;
2940;SDS011;1480;51.456;6.670;2023-07-13T13:02:51;4.00;;;1.27;;
2940;SDS011;1480;51.456;6.670;2023-07-13T13:05:18;3.40;;;1.33;;
2940;SDS011;1480;51.456;6.670;2023-07-13T13:07:48;1.73;;;1.10;;
2940;SDS011;1480;51.456;6.670;2023-07-13T13:10:15;3.33;;;1.30;;
2940;SDS011;1480;51.456;6.670;2023-07-13T13:12:42;2.20;;;1.20;;
2940;SDS011;1480;51.456;6.670;2023-07-13T13:15:09;1.70;;;1.10;;
2940;SDS011;1480;51.456;6.670;2023-07-13T13:17:36;1.87;;;1.20;;
2940;SDS011;1480;51.456;6.670;2023-07-13T13:20:11;4.07;;;1.17;;
2940;SDS011;1480;51.456;6.670;2023-07-13T13:22:41;2.47;;;1.23;;
2940;SDS011;1480;51.456;6.670;2023-07-13T13:25:09;1.83;;;1.00;;
2940;SDS011;1480;51.456;6.670;2023-07-13T13:27:37;3.40;;;1.50;;
2940;SDS011;1480;51.456;6.670;2023-07-13T13:30:05;2.57;;;1.40;;
2940;SDS011;1480;51.456;6.670;2023-07-13T13:32:37;2.07;;;1.10;;
2940;SDS011;1480;51.456;6.670;2023-07-13T13:35:07;3.90;;;1.40;;
2940;SDS011;1480;51.456;6.670;2023-07-13T13:37:39;3.80;;;1.23;;
2940;SDS011;1480;51.456;6.670;2023-07-13T13:40:13;1.40;;;1.00;;
2940;SDS011;1480;51.456;6.670;2023-07-13T13:42:41;2.13;;;1.17;;
2940;SDS011;1480;51.456;6.670;2023-07-13T13:45:08;3.00;;;1.07;;
2940;SDS011;1480;51.456;6.670;2023-07-13T13:47:36;3.53;;;1.37;;
2940;SDS011;1480;51.456;6.670;2023-07-13T13:50:10;2.03;;;0.97;;
2940;SDS011;1480;51.456;6.670;2023-07-13T13:52:39;7.77;;;1.30;;
2940;SDS011;1480;51.456;6.670;2023-07-13T13:55:11;2.07;;;1.40;;
2940;SDS011;1480;51.456;6.670;2023-07-13T13:57:38;2.20;;;1.40;;
2940;SDS011;1480;51.456;6.670;2023-07-13T14:00:05;2.80;;;1.70;;
2940;SDS011;1480;51.456;6.670;2023-07-13T14:02:34;3.43;;;1.87;;
2940;SDS011;1480;51.456;6.670;2023-07-13T14:05:01;1.87;;;1.00;;
2940;SDS011;1480;51.456;6.670;2023-07-13T14:07:31;3.60;;;1.70;;
2940;SDS011;1480;51.456;6.670;2023-07-13T14:09:58;2.60;;;1.33;;
2940;SDS011;1480;51.456;6.670;2023-07-13T14:12:26;2.90;;;1.30;;
2940;SDS011;1480;51.456;6.670;2023-07-13T14:14:54;4.70;;;1.63;;
2940;SDS011;1480;51.456;6.670;2023-07-13T14:17:21;2.50;;;1.67;;
2940;SDS011;1480;51.456;6.670;2023-07-13T14:19:49;4.50;;;1.70;;
2940;SDS011;1480;51.456;6.670;2023-07-13T14:22:21;9.00;;;1.67;;
2940;SDS011;1480;51.456;6.670;2023-07-13T14:24:50;2.43;;;1.50;;
2940;SDS011;1480;51.456;6.670;2023-07-13T14:27:18;4.93;;;1.40;;
2940;SDS011;1480;51.456;6.670;2023-07-13T14:29:45;2.10;;;1.07;;
2940;SDS011;1480;51.456;6.670;2023-07-13T14:32:12;2.53;;;1.53;;
2940;SDS011;1480;51.456;6.670;2023-07-13T14:34:39;2.00;;;1.23;;
2940;SDS011;1480;51.456;6.670;2023-07-13T14:37:08;5.73;;;1.43;;
2940;SDS011;1480;51.456;6.670;2023-07-13T14:39:38;2.53;;;1.40;;
2940;SDS011;1480;51.456;6.670;2023-07-13T14:42:08;2.80;;;1.70;;
2940;SDS011;1480;51.456;6.670;2023-07-13T14:44:35;5.40;;;1.37;;
2940;SDS011;1480;51.456;6.670;2023-07-13T14:47:03;2.60;;;1.53;;
2940;SDS011;1480;51.456;6.670;2023-07-13T14:49:32;3.77;;;1.50;;
2940;SDS011;1480;51.456;6.670;2023-07-13T14:52:01;2.00;;;1.20;;
2940;SDS011;1480;51.456;6.670;2023-07-13T14:54:29;4.73;;;1.53;;
2940;SDS011;1480;51.456;6.670;2023-07-13T14:56:56;4.03;;;1.53;;
2940;SDS011;1480;51.456;6.670;2023-07-13T14:59:24;3.50;;;1.90;;
2940;SDS011;1480;51.456;6.670;2023-07-13T15:01:51;2.50;;;1.57;;
2940;SDS011;1480;51.456;6.670;2023-07-13T15:04:17;6.63;;;2.33;;
2940;SDS011;1480;51.456;6.670;2023-07-13T15:06:52;3.17;;;1.40;;
2940;SDS011;1480;51.456;6.670;2023-07-13T15:09:19;4.23;;;2.30;;
2940;SDS011;1480;51.456;6.670;2023-07-13T15:11:46;2.63;;;1.70;;
2940;SDS011;1480;51.456;6.670;2023-07-13T15:14:13;5.03;;;1.90;;
2940;SDS011;1480;51.456;6.670;2023-07-13T15:16:41;2.73;;;1.57;;
2940;SDS011;1480;51.456;6.670;2023-07-13T15:19:08;2.97;;;1.97;;
2940;SDS011;1480;51.456;6.670;2023-07-13T15:21:35;11.23;;;2.30;;
2940;SDS011;1480;51.456;6.670;2023-07-13T15:24:02;4.20;;;2.10;;
2940;SDS011;1480;51.456;6.670;2023-07-13T15:26:33;3.63;;;2.07;;